Terminal Aerodrome Forecast
Issued by NWS

Home | Current Version | Previous Version | Text Only | Print | Product List | Glossary On
Versions: 1 2 3 4 5 6 7 8 9 10 11 12 13 14 15 16 17 18 19 20 21 22 23 24 25 26 27 28 29 30 31 32 33 34 35 36 37 38 39 40 41 42 43 44 45 46 47 48
000
FTUS45 KPSR 310500
TAFIWA
TAF
KIWA 310523Z 3106/0106 12003KT P6SM VCSH FEW016 OVC080
     FM311000 12004KT 6SM BR BKN022 OVC080
     FM311500 10004KT 5SM -SHRA BR BKN018 OVC070
     FM311800 16005KT P6SM SCT035 BKN080
     FM312100 27005KT P6SM VCSH BKN050
     FM010200 12004KT P6SM BKN060
      AMD LTD TO CLD VIS AND WIND TIL 311300=

USA.gov is the U.S. government's official web portal to all federal, state and local government web resources and services.